Time;durP1;ratioP1;P1;durP2;ratioP2;P2;SDS_P1;SDS_P2;PMS_P1;PMS_P2;Temp;Humidity;BMP_temperature;BMP_pressure;BME280_temperature;BME280_humidity;BME280_pressure;Samples;Min_cycle;Max_cycle;Signal;HPM_P1;HPM_P2
2022/01/25 00:08:22;;;;;;;12.43;8.45;;;;;;;4.14;89.35;103093.69;5083137;28;20047;-74
2022/01/25 00:10:15;;;;;;;12.00;7.05;;;;;;;4.09;89.44;103105.03;5085788;28;20072;-73
2022/01/25 00:24:13;;;;;;;9.77;7.18;;;;;;;4.08;88.82;103105.94;5085715;28;20047;-75
2022/01/25 00:24:22;;;;;;;13.45;8.30;;;;;;;4.10;89.30;103096.38;5085361;28;20055;-72
2022/01/25 00:27:02;;;;;;;10.20;7.20;;;;;;;4.08;88.67;103093.81;5078133;28;20048;-73
2022/01/25 00:29:35;;;;;;;13.65;8.77;;;;;;;4.09;88.44;103094.63;5084871;28;20075;-74
2022/01/25 00:32:04;;;;;;;13.02;8.25;;;;;;;4.08;88.19;103108.53;5082293;28;20039;-73
2022/01/25 00:34:30;;;;;;;10.02;7.15;;;;;;;4.05;89.21;103103.38;5083157;28;20039;-73
2022/01/25 00:36:57;;;;;;;8.60;6.00;;;;;;;4.07;89.19;103107.69;5083193;28;20153;-74
2022/01/25 00:39:24;;;;;;;11.73;8.10;;;;;;;4.10;88.56;103101.56;5087203;28;20414;-73
2022/01/25 00:41:52;;;;;;;10.88;7.22;;;;;;;4.09;88.90;103105.94;5092009;28;20055;-74
2022/01/25 00:44:19;;;;;;;11.57;6.65;;;;;;;4.09;88.29;103107.66;5100941;28;20048;-73
2022/01/25 00:46:46;;;;;;;8.63;5.68;;;;;;;4.12;88.88;103097.22;5098778;28;20056;-73
2022/01/25 00:49:24;;;;;;;15.10;8.38;;;;;;;4.12;88.24;103102.41;5100215;28;20043;-73
2022/01/25 00:52:05;;;;;;;11.20;7.13;;;;;;;4.08;88.63;103095.53;5080553;28;20167;-73
2022/01/25 00:54:33;;;;;;;10.27;6.20;;;;;;;4.04;87.96;103096.47;5079754;28;20208;-73
2022/01/25 00:57:00;;;;;;;15.48;7.47;;;;;;;4.04;88.60;103096.47;5084245;28;20133;-73
2022/01/25 00:59:28;;;;;;;13.77;7.20;;;;;;;4.04;88.14;103096.47;5081019;28;20040;-73
2022/01/25 01:01:57;;;;;;;11.27;5.95;;;;;;;4.09;87.67;103098.13;5082406;28;20055;-74
2022/01/25 01:04:25;;;;;;;13.73;6.80;;;;;;;4.07;87.99;103102.47;5084598;28;20148;-74
2022/01/25 01:06:52;;;;;;;14.98;8.50;;;;;;;4.07;88.29;103107.69;5085547;28;20052;-74
2022/01/25 01:09:23;;;;;;;19.02;8.80;;;;;;;4.07;88.77;103101.59;5080365;28;20052;-73
2022/01/25 01:11:57;;;;;;;17.77;8.38;;;;;;;4.06;88.73;103099.91;5080620;28;20044;-74
2022/01/25 01:14:37;;;;;;;16.80;10.32;;;;;;;4.05;88.63;103100.78;5083852;28;20058;-74
2022/01/25 01:17:20;;;;;;;18.10;9.82;;;;;;;4.02;88.31;103101.66;5083266;28;20266;-73
2022/01/25 01:31:05;;;;;;;13.85;6.97;;;;;;;4.06;88.28;103094.72;5074688;28;20048;-74
2022/01/25 01:34:16;;;;;;;23.00;7.80;;;;;;;4.09;88.23;103102.44;5082045;28;20055;-73
2022/01/25 01:42:47;;;;;;;14.73;8.32;;;;;;;4.11;86.75;103101.53;5083720;28;20047;-75
2022/01/25 01:45:29;;;;;;;10.25;7.25;;;;;;;4.10;87.13;103096.38;5084412;28;20048;-73
2022/01/25 01:48:04;;;;;;;10.10;6.90;;;;;;;4.11;86.29;103095.50;5081276;28;20058;-74
2022/01/25 01:50:33;;;;;;;13.82;7.90;;;;;;;4.12;86.31;103099.81;5086707;28;20050;-74
2022/01/25 01:53:04;;;;;;;8.95;6.50;;;;;;;4.23;85.72;103101.34;5085651;28;20054;-73
2022/01/25 01:55:31;;;;;;;12.90;9.10;;;;;;;4.21;85.95;103087.50;5081501;28;20048;-74
2022/01/25 01:57:59;;;;;;;14.20;6.97;;;;;;;4.24;86.40;103089.19;5082537;28;20096;-74
2022/01/25 02:00:31;;;;;;;12.68;7.50;;;;;;;4.26;86.39;103097.84;5088026;28;20129;-73
2022/01/25 02:03:00;;;;;;;16.08;7.05;;;;;;;4.23;86.13;103085.75;5075989;28;20036;-73
2022/01/25 02:05:27;;;;;;;13.13;6.50;;;;;;;4.25;85.43;103093.50;5078292;28;20478;-74
2022/01/25 02:07:54;;;;;;;10.23;6.30;;;;;;;4.23;85.83;103092.69;5085293;28;20043;-75
2022/01/25 02:10:22;;;;;;;12.52;6.88;;;;;;;4.22;86.20;103088.38;5084631;28;20031;-73
2022/01/25 02:12:51;;;;;;;15.18;7.05;;;;;;;4.19;86.43;103093.63;5086127;28;20047;-73
2022/01/25 02:15:18;;;;;;;22.25;9.68;;;;;;;4.22;86.81;103090.97;5088053;28;20408;-73
2022/01/25 02:22:23;;;;;;;17.85;10.65;;;;;;;4.21;85.83;103094.47;5085732;28;20063;-72
2022/01/25 02:23:29;;;;;;;16.45;7.90;;;;;;;4.30;86.49;103094.31;5098896;27;20075;-74
2022/01/25 02:25:58;;;;;;;12.52;8.45;;;;;;;4.31;85.99;103089.09;5095975;27;20035;-74
2022/01/25 02:28:27;;;;;;;13.90;8.75;;;;;;;4.29;86.43;103093.44;5098803;28;20055;-73
2022/01/25 02:30:55;;;;;;;10.32;6.30;;;;;;;4.34;85.69;103085.56;5092427;28;20036;-72
2022/01/25 02:33:22;;;;;;;18.25;10.15;;;;;;;4.39;86.01;103089.81;5084659;28;20621;-73
2022/01/25 02:35:50;;;;;;;16.52;8.35;;;;;;;4.37;85.56;103085.53;5085336;28;20047;-75
2022/01/25 02:38:21;;;;;;;14.88;9.07;;;;;;;4.36;85.25;103089.00;5085956;28;20063;-73
2022/01/25 02:40:47;;;;;;;13.77;7.63;;;;;;;4.33;85.43;103089.03;5084867;28;20365;-73
2022/01/25 02:43:17;;;;;;;16.77;8.40;;;;;;;4.29;85.10;103090.84;5084818;28;20510;-73
2022/01/25 02:45:46;;;;;;;15.13;7.85;;;;;;;4.31;85.41;103091.69;5085437;28;20046;-75
2022/01/25 02:48:30;;;;;;;17.85;9.02;;;;;;;4.35;85.26;103089.88;5086253;28;20043;-73
2022/01/25 02:51:00;;;;;;;20.00;9.60;;;;;;;4.30;85.74;103095.16;5086747;28;20031;-73
2022/01/25 02:53:29;;;;;;;27.45;9.50;;;;;;;4.33;86.08;103091.66;5084486;28;20052;-75
2022/01/25 02:55:58;;;;;;;16.50;8.75;;;;;;;4.20;86.67;103087.53;5079892;28;20056;-73
2022/01/25 02:58:24;;;;;;;20.45;8.70;;;;;;;4.20;86.51;103087.53;5084192;28;20042;-73
2022/01/25 03:00:51;;;;;;;13.55;7.45;;;;;;;4.20;86.53;103084.94;5076849;28;20452;-74
2022/01/25 03:03:17;;;;;;;15.70;9.00;;;;;;;4.23;85.87;103083.16;5082490;28;20047;-72
2022/01/25 03:05:45;;;;;;;19.95;9.68;;;;;;;4.30;85.91;103081.31;5084607;28;20048;-73
2022/01/25 03:08:15;;;;;;;14.57;8.15;;;;;;;4.30;84.84;103073.50;5083167;28;20122;-73
2022/01/25 03:10:43;;;;;;;14.40;8.18;;;;;;;4.24;85.03;103073.59;5081840;28;20109;-74
2022/01/25 03:13:18;;;;;;;13.13;8.15;;;;;;;4.22;86.27;103075.38;5083695;28;20324;-73
2022/01/25 03:16:01;;;;;;;13.02;7.20;;;;;;;4.28;86.41;103054.47;5079697;28;20035;-75
2022/01/25 03:18:44;;;;;;;14.65;9.07;;;;;;;4.34;85.11;103057.81;5081157;28;20092;-74
2022/01/25 03:24:00;;;;;;;15.00;9.05;;;;;;;4.26;86.95;103056.22;5098970;28;20051;-74
2022/01/25 03:26:28;;;;;;;15.23;9.38;;;;;;;4.23;86.61;103056.25;5100690;28;20047;-74
2022/01/25 03:28:55;;;;;;;18.55;8.52;;;;;;;4.21;87.15;103053.69;5098526;28;20312;-75
2022/01/25 03:31:23;;;;;;;16.98;10.45;;;;;;;4.23;85.88;103045.84;5083169;28;20062;-73
2022/01/25 03:33:49;;;;;;;17.40;9.35;;;;;;;4.19;85.47;103046.81;5080848;28;20075;-74
2022/01/25 03:36:16;;;;;;;16.95;9.38;;;;;;;4.18;85.24;103047.69;5078776;28;20047;-74
2022/01/25 03:38:43;;;;;;;12.95;8.40;;;;;;;4.16;85.41;103042.53;5082850;28;20043;-73
2022/01/25 03:41:12;;;;;;;21.73;10.30;;;;;;;4.16;84.99;103054.66;5080442;28;20047;-73
2022/01/25 03:43:39;;;;;;;17.58;9.60;;;;;;;4.22;85.40;103046.75;5079433;28;20039;-73
2022/01/25 03:46:12;;;;;;;11.43;8.32;;;;;;;4.27;85.50;103048.38;5078320;28;20514;-74
2022/01/25 03:51:25;;;;;;;14.07;8.68;;;;;;;4.25;85.10;103039.75;5082297;28;20105;-73
2022/01/25 03:53:54;;;;;;;22.08;8.45;;;;;;;4.29;85.16;103037.97;5083326;28;20056;-72
2022/01/25 03:56:23;;;;;;;14.18;9.35;;;;;;;4.31;84.88;103033.59;5071823;28;20064;-73
2022/01/25 03:58:50;;;;;;;15.20;7.68;;;;;;;4.35;84.39;103040.47;5079450;28;20162;-73
2022/01/25 04:01:17;;;;;;;14.13;7.75;;;;;;;4.28;85.10;103038.84;5081244;28;20071;-75
2022/01/25 04:03:53;;;;;;;17.60;8.93;;;;;;;4.18;86.12;103032.06;5081388;28;20104;-73
2022/01/25 04:06:21;;;;;;;14.18;9.25;;;;;;;4.17;85.19;103040.75;5081914;28;20043;-74
2022/01/25 04:08:47;;;;;;;16.55;8.05;;;;;;;4.13;85.57;103049.50;5080428;28;20047;-74
2022/01/25 04:11:14;;;;;;;16.95;8.02;;;;;;;4.15;85.17;103046.00;5082223;28;20124;-73
2022/01/25 04:13:43;;;;;;;16.15;8.70;;;;;;;4.15;86.21;103039.91;5082241;28;20040;-74
2022/01/25 04:16:20;;;;;;;10.05;7.40;;;;;;;4.18;85.55;103047.69;5083610;28;20494;-73
2022/01/25 04:18:59;;;;;;;13.32;7.70;;;;;;;4.19;85.94;103041.59;5082094;28;20132;-73
2022/01/25 04:21:45;;;;;;;12.18;7.13;;;;;;;4.19;85.81;103037.25;5078604;28;20047;-72
2022/01/25 04:26:58;;;;;;;9.75;7.10;;;;;;;4.24;85.31;103031.97;5083753;28;20048;-73
2022/01/25 04:29:27;;;;;;;18.48;8.48;;;;;;;4.31;84.56;103038.81;5082259;28;20048;-73
2022/01/25 04:31:54;;;;;;;10.25;6.95;;;;;;;4.27;85.83;103040.56;5081071;28;20039;-72
2022/01/25 04:51:10;;;;;;;17.10;8.55;;;;;;;4.00;85.56;103038.44;5080566;28;20051;-72
2022/01/25 04:53:46;;;;;;;14.40;7.65;;;;;;;4.06;85.59;103038.34;5081366;28;20140;-73
2022/01/25 04:56:19;;;;;;;12.20;8.57;;;;;;;4.05;85.62;103030.56;5074217;28;20100;-73
2022/01/25 04:58:54;;;;;;;13.20;8.95;;;;;;;4.12;85.97;103035.63;5083331;28;20044;-74
2022/01/25 05:01:22;;;;;;;14.35;8.13;;;;;;;4.22;84.05;103041.56;5069647;28;20122;-73
2022/01/25 05:04:01;;;;;;;15.27;8.32;;;;;;;4.17;84.62;103036.44;5077899;28;20050;-73
2022/01/25 05:06:29;;;;;;;16.83;9.30;;;;;;;4.14;84.74;103030.44;5080487;28;20096;-73
2022/01/25 05:09:06;;;;;;;13.77;7.95;;;;;;;4.13;84.87;103039.97;5084083;28;20067;-72
2022/01/25 05:11:35;;;;;;;19.65;11.73;;;;;;;4.09;86.43;103050.44;5081712;28;20040;-72
2022/01/25 05:14:15;;;;;;;16.08;10.30;;;;;;;4.12;86.03;103040.00;5080110;28;20097;-74
2022/01/25 05:16:51;;;;;;;19.20;10.25;;;;;;;4.14;86.62;103040.84;5079492;28;20048;-73
2022/01/25 05:22:03;;;;;;;15.00;8.20;;;;;;;4.22;85.66;103033.75;5078449;28;20097;-72
2022/01/25 05:22:20;;;;;;;16.70;8.80;;;;;;;4.18;85.67;103038.16;5079413;28;20054;-72
2022/01/25 05:24:48;;;;;;;27.27;8.25;;;;;;;4.15;85.95;103027.78;5078347;28;20638;-73
2022/01/25 05:27:17;;;;;;;11.45;7.43;;;;;;;4.15;84.70;103030.41;5081315;28;20039;-73
2022/01/25 05:29:44;;;;;;;24.58;9.88;;;;;;;4.14;85.77;103030.44;5079718;28;20588;-73
2022/01/25 05:32:12;;;;;;;14.95;8.70;;;;;;;4.08;85.20;103030.50;5076082;28;20136;-71
2022/01/25 05:34:39;;;;;;;20.30;10.27;;;;;;;4.04;86.18;103040.09;5081594;28;20126;-72
2022/01/25 05:37:08;;;;;;;13.20;9.43;;;;;;;4.03;86.06;103042.75;5080240;28;20048;-71
2022/01/25 05:39:36;;;;;;;17.23;9.18;;;;;;;3.98;85.99;103034.16;5083911;28;20067;-72
2022/01/25 05:42:16;;;;;;;19.27;10.30;;;;;;;4.11;86.30;103040.88;5079790;28;20068;-73
2022/01/25 05:44:54;;;;;;;18.25;10.18;;;;;;;4.15;86.35;103040.78;5087227;28;20129;-70
2022/01/25 05:47:28;;;;;;;14.55;8.63;;;;;;;4.12;86.02;103030.44;5081500;28;20069;-71
2022/01/25 05:49:55;;;;;;;16.15;7.97;;;;;;;4.13;86.19;103036.50;5073976;28;20526;-71
2022/01/25 05:52:22;;;;;;;14.23;8.63;;;;;;;4.06;85.58;103027.94;5080999;28;20036;-70
2022/01/25 05:54:49;;;;;;;16.33;9.23;;;;;;;4.02;86.23;103028.84;5084212;28;20036;-72
2022/01/25 05:57:20;;;;;;;23.15;9.80;;;;;;;3.94;84.93;103022.06;5088538;28;20054;-73
2022/01/25 05:59:46;;;;;;;11.52;8.13;;;;;;;3.92;85.98;103023.84;5102592;28;20048;-72
2022/01/25 06:02:17;;;;;;;17.60;8.65;;;;;;;3.98;85.42;103023.75;5100283;28;20130;-71
2022/01/25 06:04:46;;;;;;;18.48;10.18;;;;;;;3.97;85.49;103024.66;5093914;28;20040;-72
2022/01/25 06:07:13;;;;;;;15.38;10.98;;;;;;;3.96;86.32;103025.53;5089726;28;20066;-70
2022/01/25 06:09:43;;;;;;;19.10;9.07;;;;;;;3.94;86.58;103028.13;5088856;28;20043;-70
2022/01/25 06:12:13;;;;;;;21.98;11.25;;;;;;;3.98;86.73;103024.59;5085997;27;20052;-72
2022/01/25 06:14:40;;;;;;;19.20;10.13;;;;;;;3.96;86.11;103026.38;5088834;28;20126;-71
2022/01/25 06:17:08;;;;;;;25.00;9.85;;;;;;;3.97;86.98;103024.66;5092769;28;20078;-69
2022/01/25 06:19:34;;;;;;;15.70;9.88;;;;;;;3.92;87.25;103023.84;5094669;28;20035;-73
2022/01/25 06:22:02;;;;;;;16.05;8.70;;;;;;;3.88;85.70;103021.31;5092175;28;20040;-73
2022/01/25 06:24:29;;;;;;;23.45;11.80;;;;;;;3.89;85.97;103023.91;5101002;27;20047;-71
2022/01/25 06:26:57;;;;;;;14.38;9.43;;;;;;;3.93;86.03;103020.34;5090696;28;20047;-71
2022/01/25 06:29:24;;;;;;;19.95;8.50;;;;;;;3.95;86.09;103016.00;5087575;28;20036;-73
2022/01/25 06:31:50;;;;;;;17.65;9.73;;;;;;;3.93;85.39;103025.56;5094905;28;20094;-73
2022/01/25 06:34:17;;;;;;;16.48;9.25;;;;;;;3.94;86.28;103024.69;5081449;28;20138;-72
2022/01/25 06:36:45;;;;;;;14.57;8.75;;;;;;;3.95;85.68;103029.00;5091118;28;20039;-73
2022/01/25 06:39:13;;;;;;;31.20;11.68;;;;;;;3.96;86.19;103022.91;5090248;28;20063;-72
2022/01/25 06:41:42;;;;;;;19.05;8.82;;;;;;;4.01;85.79;103021.09;5092710;28;20051;-72
2022/01/25 06:44:09;;;;;;;12.18;7.45;;;;;;;4.03;85.33;103027.97;5085843;28;20097;-73
2022/01/25 06:46:36;;;;;;;23.50;10.98;;;;;;;4.00;85.98;103027.16;5088145;28;20120;-73
2022/01/25 06:49:03;;;;;;;16.42;9.45;;;;;;;3.96;85.89;103033.31;5093648;28;20044;-72
2022/01/25 06:51:30;;;;;;;20.10;10.85;;;;;;;3.94;84.98;103026.44;5095674;28;20044;-72
2022/01/25 06:53:58;;;;;;;17.00;9.82;;;;;;;3.92;86.09;103033.38;5101330;28;20067;-72
2022/01/25 06:56:25;;;;;;;23.98;10.55;;;;;;;3.91;85.81;103035.13;5088658;28;20043;-71
2022/01/25 06:58:52;;;;;;;14.63;8.82;;;;;;;3.87;85.41;103036.06;5097868;28;20039;-72
2022/01/25 07:01:19;;;;;;;16.52;10.13;;;;;;;3.90;85.43;103035.16;5087629;28;20094;-72
2022/01/25 07:03:46;;;;;;;13.45;8.00;;;;;;;3.94;85.85;103034.22;5085740;28;20115;-72
2022/01/25 07:06:12;;;;;;;14.63;9.43;;;;;;;3.98;85.70;103035.00;5089282;28;20051;-72
2022/01/25 07:08:39;;;;;;;20.40;10.18;;;;;;;4.03;84.96;103043.59;5085196;28;20055;-72
2022/01/25 07:11:06;;;;;;;21.38;9.68;;;;;;;3.99;85.80;103038.44;5088389;28;20056;-73
2022/01/25 07:13:34;;;;;;;14.75;9.43;;;;;;;3.98;85.44;103029.81;5087013;28;20036;-73
2022/01/25 07:16:01;;;;;;;20.60;10.30;;;;;;;3.99;85.88;103031.53;5077412;28;20100;-71
2022/01/25 07:18:27;;;;;;;21.85;9.63;;;;;;;4.01;85.95;103044.50;5092809;28;20035;-71
2022/01/25 07:20:54;;;;;;;21.25;11.32;;;;;;;3.95;85.91;103045.44;5092754;28;20052;-72
2022/01/25 07:23:22;;;;;;;19.13;9.00;;;;;;;3.90;85.48;103046.41;5091399;27;20071;-71
2022/01/25 07:25:49;;;;;;;16.63;10.25;;;;;;;3.93;85.75;103046.34;5091199;28;20052;-71
2022/01/25 07:28:15;;;;;;;17.27;9.63;;;;;;;3.89;85.99;103039.50;5085692;28;20052;-71
2022/01/25 07:30:44;;;;;;;23.90;9.95;;;;;;;3.91;86.22;103048.13;5086805;28;20058;-72
2022/01/25 07:33:11;;;;;;;17.20;11.05;;;;;;;3.84;86.28;103043.91;5083566;28;20128;-71
2022/01/25 07:35:38;;;;;;;29.48;8.73;;;;;;;3.84;85.67;103043.91;5086667;28;20044;-70
2022/01/25 07:38:05;;;;;;;19.27;10.15;;;;;;;3.85;86.18;103043.03;5086754;28;20044;-72
2022/01/25 07:40:33;;;;;;;23.77;10.35;;;;;;;3.87;85.71;103043.88;5080512;28;20040;-71
2022/01/25 07:43:00;;;;;;;15.80;8.55;;;;;;;3.89;85.57;103044.69;5086822;28;20040;-71
2022/01/25 07:45:29;;;;;;;21.35;9.35;;;;;;;3.91;85.71;103040.31;5093440;28;20051;-72
2022/01/25 07:47:57;;;;;;;18.55;9.63;;;;;;;4.02;86.08;103043.63;5086396;28;20040;-71
2022/01/25 07:50:23;;;;;;;12.57;8.38;;;;;;;4.05;86.03;103040.97;5092902;28;20109;-73
2022/01/25 07:52:50;;;;;;;15.52;9.80;;;;;;;4.05;86.17;103046.19;5093908;28;20040;-71
2022/01/25 07:55:17;;;;;;;20.20;10.10;;;;;;;4.06;85.63;103040.94;5087326;28;20059;-74
2022/01/25 07:57:44;;;;;;;20.13;9.13;;;;;;;4.03;86.57;103051.38;5097097;28;20071;-70
2022/01/25 08:00:12;;;;;;;22.02;11.10;;;;;;;4.00;85.61;103045.38;5089208;28;20063;-72
2022/01/25 08:02:39;;;;;;;24.35;11.38;;;;;;;4.01;85.44;103045.38;5091453;28;20071;-72
2022/01/25 08:05:07;;;;;;;16.23;9.10;;;;;;;3.95;85.57;103044.59;5088197;28;20044;-73
2022/01/25 08:07:34;;;;;;;16.08;8.32;;;;;;;3.90;84.44;103046.41;5090793;28;20040;-72
2022/01/25 08:10:01;;;;;;;15.98;8.60;;;;;;;3.91;84.91;103042.91;5086778;28;20143;-72
2022/01/25 08:12:27;;;;;;;19.27;8.90;;;;;;;3.95;84.47;103040.25;5089250;28;20085;-73
2022/01/25 08:14:57;;;;;;;24.27;9.90;;;;;;;4.00;84.67;103037.56;5094105;28;20118;-73
2022/01/25 08:17:24;;;;;;;14.75;9.70;;;;;;;4.04;84.42;103041.84;5090795;28;20039;-72
2022/01/25 08:19:50;;;;;;;22.17;9.57;;;;;;;4.12;83.95;103047.78;5092844;28;20036;-73
2022/01/25 08:22:19;;;;;;;17.92;10.38;;;;;;;4.06;84.40;103046.16;5086871;28;20055;-71
2022/01/25 08:24:45;;;;;;;43.65;10.52;;;;;;;4.03;84.98;103047.94;5095812;27;20063;-72
2022/01/25 08:27:12;;;;;;;20.33;10.32;;;;;;;3.98;83.89;103044.56;5084771;28;20040;-72
2022/01/25 08:29:39;;;;;;;12.90;9.15;;;;;;;4.00;84.07;103040.16;5085000;28;20047;-70
2022/01/25 08:32:07;;;;;;;16.15;9.20;;;;;;;4.02;84.84;103051.41;5085865;28;20039;-72
2022/01/25 08:34:33;;;;;;;11.43;8.35;;;;;;;4.12;85.05;103055.59;5092588;28;20051;-71
2022/01/25 08:37:00;;;;;;;23.75;10.68;;;;;;;4.20;84.52;103067.56;5102243;28;20048;-72
2022/01/25 08:39:28;;;;;;;23.50;11.35;;;;;;;4.26;84.95;103067.50;5100566;28;20039;-72
2022/01/25 08:41:55;;;;;;;22.48;10.07;;;;;;;4.30;84.63;103063.94;5085181;28;20114;-71
2022/01/25 08:44:21;;;;;;;23.63;9.05;;;;;;;4.31;84.09;103065.66;5086873;28;20043;-71
2022/01/25 08:46:48;;;;;;;15.75;10.32;;;;;;;4.31;83.51;103060.47;5079314;28;20040;-73
2022/01/25 08:49:15;;;;;;;21.15;10.52;;;;;;;4.25;83.36;103059.69;5086433;28;20071;-72
2022/01/25 08:51:41;;;;;;;23.25;10.80;;;;;;;4.21;82.87;103064.09;5082850;28;20402;-72
2022/01/25 08:54:08;;;;;;;21.73;9.13;;;;;;;4.25;83.64;103059.69;5087307;28;20067;-73
2022/01/25 08:56:36;;;;;;;18.73;8.73;;;;;;;4.28;82.84;103067.47;5092789;28;20876;-72
2022/01/25 08:59:03;;;;;;;30.92;10.52;;;;;;;4.23;83.41;103069.25;5087209;28;20028;-72
2022/01/25 09:01:29;;;;;;;24.02;10.35;;;;;;;4.14;84.27;103067.69;5080088;28;20051;-72
2022/01/25 09:03:56;;;;;;;15.82;8.32;;;;;;;4.21;82.24;103063.25;5087152;28;20046;-73
2022/01/25 09:06:23;;;;;;;16.23;9.52;;;;;;;4.16;81.91;103065.94;5085923;28;20067;-71
2022/01/25 09:08:52;;;;;;;32.72;11.85;;;;;;;4.22;82.17;103080.59;5085735;28;20040;-72
2022/01/25 09:11:19;;;;;;;16.17;9.57;;;;;;;4.24;82.42;103073.59;5084534;28;20149;-71
2022/01/25 09:13:47;;;;;;;26.45;10.52;;;;;;;4.36;82.46;103095.06;5088596;28;20048;-72
2022/01/25 09:16:13;;;;;;;22.30;9.95;;;;;;;4.35;82.13;103082.09;5090126;28;20326;-72
2022/01/25 09:18:43;;;;;;;29.48;11.50;;;;;;;4.30;82.47;103089.13;5089494;28;20143;-73
2022/01/25 09:21:10;;;;;;;21.20;10.80;;;;;;;4.26;83.04;103095.25;5087815;28;20102;-71
2022/01/25 09:23:37;;;;;;;21.50;11.68;;;;;;;4.31;83.33;103090.84;5095907;28;20039;-73
2022/01/25 09:26:05;;;;;;;16.70;10.18;;;;;;;4.44;84.11;103092.34;5082326;28;20118;-73
2022/01/25 09:28:31;;;;;;;35.75;11.82;;;;;;;4.39;81.98;103097.63;5093399;28;20220;-72
2022/01/25 09:31:01;;;;;;;17.60;11.25;;;;;;;4.39;82.98;103089.81;5086068;28;20032;-74
2022/01/25 09:33:27;;;;;;;12.82;9.27;;;;;;;4.34;82.70;103090.78;5093024;28;20101;-73
2022/01/25 09:35:55;;;;;;;30.45;9.65;;;;;;;4.35;82.17;103095.94;5090201;28;20126;-73
2022/01/25 09:38:22;;;;;;;19.77;9.80;;;;;;;4.36;81.82;103091.59;5091829;28;20036;-72
2022/01/25 09:40:49;;;;;;;14.85;9.82;;;;;;;4.37;81.43;103086.38;5091004;28;20044;-72
2022/01/25 09:43:16;;;;;;;17.25;11.05;;;;;;;4.35;81.54;103085.53;5095662;28;20032;-73
2022/01/25 09:45:43;;;;;;;18.35;9.85;;;;;;;4.35;82.32;103093.34;5089242;28;20075;-72
2022/01/25 09:48:12;;;;;;;14.07;9.05;;;;;;;4.35;81.94;103095.94;5095062;28;20063;-72
2022/01/25 09:50:39;;;;;;;21.55;11.27;;;;;;;4.39;82.13;103099.38;5090411;28;20107;-72
2022/01/25 09:53:07;;;;;;;19.63;9.65;;;;;;;4.46;81.95;103087.97;5093070;28;20040;-73
2022/01/25 09:55:36;;;;;;;22.15;9.35;;;;;;;4.56;82.02;103092.13;5095805;28;20039;-72
2022/01/25 09:58:03;;;;;;;14.57;8.23;;;;;;;4.62;81.77;103099.84;5086530;28;20056;-72
2022/01/25 10:00:32;;;;;;;16.75;9.57;;;;;;;4.68;80.79;103102.31;5087715;28;20032;-73
2022/01/25 10:03:07;;;;;;;18.25;10.88;;;;;;;4.65;80.82;103104.97;5095331;28;20134;-73
2022/01/25 10:05:37;;;;;;;24.50;10.23;;;;;;;4.55;82.04;103103.44;5090344;28;20036;-72
2022/01/25 10:08:06;;;;;;;19.65;10.32;;;;;;;4.58;81.77;103105.97;5087743;28;20044;-73
2022/01/25 10:10:34;;;;;;;20.50;11.68;;;;;;;4.70;81.55;103106.63;5094076;28;20123;-72
2022/01/25 10:13:16;;;;;;;19.13;10.32;;;;;;;4.78;81.87;103102.13;5087313;28;20044;-72
2022/01/25 10:15:43;;;;;;;24.83;10.25;;;;;;;4.92;81.19;103110.56;5086560;28;20054;-72
2022/01/25 10:18:10;;;;;;;22.15;10.60;;;;;;;4.84;79.43;103109.84;5089511;28;20168;-72
2022/01/25 10:20:41;;;;;;;16.73;9.57;;;;;;;4.68;79.71;103105.78;5091178;28;20133;-73
2022/01/25 10:23:12;;;;;;;17.27;9.90;;;;;;;4.69;79.63;103114.47;5088415;28;20044;-72
2022/01/25 10:25:41;;;;;;;31.17;9.67;;;;;;;4.59;80.43;103105.97;5090608;28;20048;-74
2022/01/25 10:28:13;;;;;;;19.58;9.75;;;;;;;4.58;80.20;103106.84;5100977;27;20389;-73
2022/01/25 10:30:49;;;;;;;21.33;12.52;;;;;;;4.56;79.86;103112.94;5090738;28;20046;-72
2022/01/25 10:33:28;;;;;;;20.08;10.23;;;;;;;4.62;79.73;103105.03;5087310;28;20076;-72
2022/01/25 10:35:57;;;;;;;15.98;10.50;;;;;;;4.78;79.41;103109.94;5089077;28;20051;-73
2022/01/25 10:38:26;;;;;;;16.52;10.65;;;;;;;4.82;79.04;103109.84;5091711;27;20043;-72
2022/01/25 10:40:55;;;;;;;13.73;9.82;;;;;;;4.66;79.53;103101.50;5091596;28;20052;-72
2022/01/25 10:43:23;;;;;;;20.42;11.32;;;;;;;4.54;79.48;103099.13;5096822;28;20047;-73
2022/01/25 10:46:07;;;;;;;21.30;11.60;;;;;;;4.51;80.60;103097.44;5087867;28;20036;-72
2022/01/25 10:48:35;;;;;;;20.75;9.88;;;;;;;4.52;81.11;103095.66;5086535;28;20042;-72
2022/01/25 10:51:08;;;;;;;19.40;10.95;;;;;;;4.58;79.67;103085.16;5089116;28;20047;-71
2022/01/25 10:53:35;;;;;;;17.13;9.52;;;;;;;4.72;79.10;103093.59;5088966;28;20051;-73
2022/01/25 10:56:04;;;;;;;20.27;12.05;;;;;;;4.86;78.55;103080.28;5088831;28;20064;-73
2022/01/25 10:58:31;;;;;;;20.15;11.63;;;;;;;4.92;78.13;103082.78;5087855;28;20040;-73
2022/01/25 11:00:59;;;;;;;21.95;11.65;;;;;;;5.09;78.46;103075.50;5090105;28;20050;-72
2022/01/25 11:03:27;;;;;;;18.13;10.85;;;;;;;5.27;77.28;103079.47;5096858;28;20494;-74
2022/01/25 11:05:54;;;;;;;22.92;11.45;;;;;;;5.36;76.79;103084.47;5090702;28;20031;-73
2022/01/25 11:08:25;;;;;;;21.83;11.20;;;;;;;5.39;76.62;103074.84;5089708;28;20056;-73
2022/01/25 11:10:56;;;;;;;15.93;10.10;;;;;;;5.36;76.02;103085.38;5092205;28;20067;-72
2022/01/25 11:13:35;;;;;;;19.42;10.35;;;;;;;5.10;76.02;103069.41;5101174;28;20040;-72
2022/01/25 11:16:04;;;;;;;15.13;10.02;;;;;;;5.08;77.29;103073.75;5108127;28;20044;-72
2022/01/25 11:18:31;;;;;;;15.57;9.48;;;;;;;5.26;77.44;103083.81;5117277;28;20043;-73
2022/01/25 11:21:00;;;;;;;11.55;8.75;;;;;;;5.45;76.02;103081.69;5110340;28;20115;-73
2022/01/25 11:23:28;;;;;;;16.98;8.23;;;;;;;5.38;75.40;103070.53;5090555;27;20915;-74
2022/01/25 11:25:56;;;;;;;15.57;9.15;;;;;;;5.23;75.47;103077.81;5090268;28;20071;-72
2022/01/25 11:28:22;;;;;;;20.15;9.35;;;;;;;5.23;75.30;103076.06;5085352;28;20047;-71
2022/01/25 11:30:49;;;;;;;15.98;10.00;;;;;;;5.34;74.96;103084.53;5088274;28;20039;-72
2022/01/25 11:33:20;;;;;;;20.33;11.07;;;;;;;5.41;75.39;103078.28;5089845;28;20101;-73
2022/01/25 11:35:48;;;;;;;17.67;9.73;;;;;;;5.43;75.15;103076.53;5086395;28;20765;-73
2022/01/25 11:38:15;;;;;;;14.02;7.55;;;;;;;5.45;73.94;103084.28;5086062;28;20044;-73
2022/01/25 11:40:47;;;;;;;29.77;10.38;;;;;;;5.22;75.02;103092.56;5095282;28;20040;-73
2022/01/25 11:43:15;;;;;;;18.00;8.98;;;;;;;5.24;75.38;103095.19;5085482;28;20043;-74
2022/01/25 11:45:44;;;;;;;26.33;8.35;;;;;;;5.26;75.22;103093.38;5086045;28;20052;-73
2022/01/25 11:48:11;;;;;;;22.83;11.13;;;;;;;5.21;75.46;103087.41;5091698;28;20154;-74
2022/01/25 11:50:41;;;;;;;14.27;9.52;;;;;;;5.44;75.93;103093.00;5092514;28;20051;-73
2022/01/25 11:53:09;;;;;;;16.95;9.73;;;;;;;5.47;74.42;103098.16;5092842;28;20032;-72
2022/01/25 11:55:38;;;;;;;31.52;10.82;;;;;;;5.39;74.55;103090.50;5089112;28;20071;-72
2022/01/25 11:58:08;;;;;;;17.88;8.80;;;;;;;5.20;76.60;103089.16;5086886;28;20046;-71
2022/01/25 12:00:41;;;;;;;22.27;7.75;;;;;;;5.31;75.50;103092.41;5087611;28;20439;-72
2022/01/25 12:03:26;;;;;;;19.70;11.35;;;;;;;5.30;76.50;103087.22;5086201;28;20063;-72
2022/01/25 12:05:59;;;;;;;14.00;9.55;;;;;;;5.09;76.31;103090.28;5088562;28;20070;-72
2022/01/25 12:08:38;;;;;;;22.05;11.85;;;;;;;5.00;76.90;103090.44;5094341;28;20051;-72
2022/01/25 12:11:28;;;;;;;19.05;11.18;;;;;;;4.89;77.43;103088.03;5087501;28;20114;-71
2022/01/25 12:16:54;;;;;;;22.65;11.57;;;;;;;4.98;78.54;103087.84;5106289;27;20882;-72
2022/01/25 12:19:22;;;;;;;19.70;12.35;;;;;;;5.14;77.97;103080.59;5104176;27;20046;-72
2022/01/25 12:21:57;;;;;;;22.00;10.32;;;;;;;5.01;77.57;103073.91;5111701;28;20242;-72
2022/01/25 12:24:29;;;;;;;20.77;9.90;;;;;;;4.98;77.47;103064.41;5106395;27;20036;-72
2022/01/25 12:27:01;;;;;;;26.60;13.93;;;;;;;5.02;78.70;103067.81;5106565;28;20118;-73
2022/01/25 12:29:32;;;;;;;25.90;13.32;;;;;;;4.94;77.93;103067.97;5099732;27;20301;-73
2022/01/25 12:32:27;;;;;;;23.08;10.82;;;;;;;5.06;78.98;103065.13;5105836;28;20049;-72
2022/01/25 12:34:58;;;;;;;21.02;12.30;;;;;;;4.94;78.41;103070.59;5084856;27;20051;-73
2022/01/25 12:37:55;;;;;;;15.85;9.85;;;;;;;4.98;78.28;103061.81;5107821;28;20039;-73